createdAt,value
2022-11-24T04:41:24.098Z,14.25
2022-11-24T04:44:27.557Z,16.85
2022-11-24T04:47:30.049Z,16.17
2022-11-24T04:50:37.133Z,15.18
2022-11-24T04:53:39.624Z,16.70
2022-11-24T04:56:43.872Z,17.92
2022-11-24T04:59:46.467Z,14.25
2022-11-24T05:02:49.251Z,16.65
2022-11-24T05:05:51.695Z,17.67
2022-11-24T05:08:54.528Z,14.05
2022-11-24T05:11:57.196Z,15.23
2022-11-24T05:15:01.533Z,15.00
2022-11-24T05:18:09.397Z,14.00
2022-11-24T05:21:12.572Z,14.30
2022-11-24T05:24:15.069Z,14.63
2022-11-24T05:27:17.850Z,13.68
2022-11-24T05:30:20.378Z,14.60
2022-11-24T05:33:23.149Z,14.35
2022-11-24T05:36:44.890Z,17.25
2022-11-24T05:39:47.854Z,13.95
2022-11-24T05:42:50.334Z,15.07
2022-11-24T05:45:53.304Z,15.05
2022-11-24T05:48:55.892Z,14.87
2022-11-24T05:51:58.752Z,15.43
2022-11-24T05:55:01.240Z,15.60
2022-11-24T05:58:06.424Z,16.33
2022-11-24T06:01:09.005Z,13.45
2022-11-24T06:04:11.774Z,14.07
2022-11-24T06:07:14.821Z,11.95
2022-11-24T06:10:19.413Z,12.70
2022-11-24T06:13:21.964Z,12.77
2022-11-24T06:16:24.851Z,12.43
2022-11-24T06:19:27.597Z,13.62
2022-11-24T06:25:33.160Z,11.35
2022-11-24T06:28:36.268Z,11.70
2022-11-24T06:31:38.845Z,12.90
2022-11-24T06:34:41.757Z,13.30
2022-11-24T06:37:45.777Z,10.30
2022-11-24T06:40:48.690Z,11.88
2022-11-24T06:43:51.158Z,11.00
2022-11-24T06:46:54.002Z,11.80
2022-11-24T06:49:56.695Z,11.75
2022-11-24T06:52:59.391Z,12.13
2022-11-24T06:56:02.603Z,11.80
2022-11-24T06:59:05.536Z,11.00
2022-11-24T07:02:10.230Z,11.00
2022-11-24T07:05:16.071Z,10.90
2022-11-24T07:08:18.679Z,10.40
2022-11-24T07:11:23.661Z,11.32
2022-11-24T07:14:27.011Z,11.25
2022-11-24T07:17:29.895Z,10.57
2022-11-24T07:20:32.611Z,12.85
2022-11-24T07:23:35.511Z,10.70
2022-11-24T07:26:38.068Z,12.45
2022-11-24T07:29:40.862Z,12.10
2022-11-24T07:32:43.357Z,12.15
2022-11-24T07:35:46.187Z,10.68
2022-11-24T07:38:49.083Z,10.32
2022-11-24T07:41:51.842Z,11.55
2022-11-24T07:44:54.382Z,13.27
2022-11-24T07:47:57.150Z,12.13
2022-11-24T07:51:00.574Z,12.00
2022-11-24T07:54:03.666Z,12.65
2022-11-24T07:57:06.144Z,12.43
2022-11-24T08:00:12.936Z,11.23
2022-11-24T08:03:16.027Z,11.57
2022-11-24T08:06:31.712Z,12.23
2022-11-24T08:09:38.969Z,11.30
2022-11-24T08:12:43.825Z,11.25
2022-11-24T08:15:46.778Z,11.88
2022-11-24T08:18:51.528Z,12.65
2022-11-24T08:21:54.518Z,12.05
2022-11-24T08:24:57.029Z,13.48
2022-11-24T08:28:01.213Z,12.00
2022-11-24T08:31:10.098Z,12.95
2022-11-24T08:34:14.754Z,13.00
2022-11-24T08:37:17.373Z,14.18
2022-11-24T08:40:20.655Z,13.73
2022-11-24T08:43:23.147Z,14.02
2022-11-24T08:46:26.007Z,13.25
2022-11-24T08:49:28.695Z,12.43
2022-11-24T08:52:31.874Z,12.00
2022-11-24T08:55:34.414Z,12.13
2022-11-24T08:58:38.014Z,12.68
2022-11-24T09:01:41.865Z,10.80
2022-11-24T09:04:45.796Z,11.65
2022-11-24T09:07:48.362Z,11.35
2022-11-24T09:10:51.579Z,11.50
2022-11-24T09:13:55.404Z,11.70
2022-11-24T09:16:58.249Z,12.07
2022-11-24T09:20:00.812Z,12.25
2022-11-24T09:23:03.826Z,12.70
2022-11-24T09:26:12.438Z,11.80
2022-11-24T09:29:15.394Z,12.35
2022-11-24T09:32:17.961Z,12.95
2022-11-24T09:35:21.208Z,11.57
2022-11-24T09:38:24.276Z,11.57
2022-11-24T09:41:38.479Z,12.32
2022-11-24T09:45:04.934Z,10.13
2022-11-24T09:48:32.090Z,11.23
2022-11-24T09:51:37.160Z,10.98
2022-11-24T09:54:52.741Z,9.75
2022-11-24T09:58:09.642Z,12.07
2022-11-24T10:01:18.140Z,12.35
2022-11-24T10:04:26.124Z,10.23
2022-11-24T10:07:42.666Z,9.45
2022-11-24T10:11:00.985Z,9.27
2022-11-24T10:14:26.307Z,11.70
2022-11-24T10:18:09.303Z,10.57
2022-11-24T10:21:35.446Z,10.88
2022-11-24T10:25:00.011Z,9.02
2022-11-24T10:28:05.094Z,11.00
2022-11-24T10:31:25.037Z,10.65
2022-11-24T10:34:34.508Z,10.27
2022-11-24T10:37:43.702Z,9.43
2022-11-24T10:41:07.856Z,9.70
2022-11-24T10:44:15.060Z,9.63
2022-11-24T10:47:22.888Z,9.27
2022-11-24T10:50:28.231Z,10.18
2022-11-24T10:53:31.288Z,10.70
2022-11-24T10:56:41.729Z,9.77
2022-11-24T10:59:44.381Z,9.52
2022-11-24T11:03:09.881Z,9.18
2022-11-24T11:06:15.086Z,8.93
2022-11-24T11:09:23.283Z,10.00
2022-11-24T11:12:45.707Z,7.35
2022-11-24T11:15:48.909Z,10.13
2022-11-24T11:18:52.271Z,9.40
2022-11-24T11:22:15.949Z,9.80
2022-11-24T11:25:34.025Z,8.35
2022-11-24T11:28:36.828Z,9.05
2022-11-24T11:31:41.160Z,8.25
2022-11-24T11:34:44.603Z,9.73
2022-11-24T11:37:48.892Z,9.43
2022-11-24T11:40:52.254Z,8.18
2022-11-24T11:44:10.848Z,8.38
2022-11-24T11:47:29.302Z,7.15
2022-11-24T11:51:06.667Z,7.72
2022-11-24T11:54:16.834Z,7.90
2022-11-24T11:57:31.163Z,7.55
2022-11-24T12:00:39.799Z,7.72
2022-11-24T12:04:01.421Z,7.57
2022-11-24T12:07:32.183Z,7.18
2022-11-24T12:10:42.441Z,9.23
2022-11-24T12:14:11.226Z,7.43
2022-11-24T12:17:56.729Z,6.82
2022-11-24T12:21:26.145Z,5.62
2022-11-24T12:24:42.844Z,5.65
2022-11-24T12:27:56.882Z,6.25
2022-11-24T12:31:02.494Z,7.00
2022-11-24T12:34:14.717Z,5.45
2022-11-24T12:37:27.301Z,6.70
2022-11-24T12:41:25.434Z,5.55
2022-11-24T12:44:44.224Z,6.80
2022-11-24T12:47:46.785Z,6.53
2022-11-24T12:50:53.231Z,8.18
2022-11-24T12:53:58.240Z,7.10
2022-11-24T12:57:10.895Z,6.15
2022-11-24T13:00:21.816Z,5.87
2022-11-24T13:03:32.394Z,6.53
2022-11-24T13:06:37.863Z,6.43
2022-11-24T13:10:19.004Z,5.87
2022-11-24T13:13:26.296Z,5.95
2022-11-24T13:16:44.409Z,6.18
2022-11-24T13:19:51.850Z,5.83
2022-11-24T13:23:03.506Z,5.50
2022-11-24T13:26:43.641Z,5.80
2022-11-24T13:29:48.518Z,6.03
2022-11-24T13:33:01.038Z,6.12
2022-11-24T13:36:04.361Z,5.87
2022-11-24T13:42:42.365Z,5.68
2022-11-24T13:45:46.921Z,5.93
2022-11-24T13:48:49.677Z,5.18
2022-11-24T13:52:36.265Z,6.20
2022-11-24T13:55:41.060Z,4.95
2022-11-24T13:58:55.020Z,5.68
2022-11-24T14:01:59.003Z,6.32
2022-11-24T14:05:01.913Z,6.28
2022-11-24T14:08:07.656Z,6.00
2022-11-24T14:11:17.004Z,6.50
2022-11-24T14:14:21.206Z,5.78
2022-11-24T14:17:28.497Z,5.40
2022-11-24T14:20:31.246Z,5.68
2022-11-24T14:23:34.171Z,6.93
2022-11-24T14:26:39.342Z,5.62
2022-11-24T14:29:57.387Z,5.45
2022-11-24T14:33:02.899Z,6.85
2022-11-24T14:36:17.598Z,6.53
2022-11-24T14:39:25.520Z,5.80
2022-11-24T14:42:28.684Z,6.15
2022-11-24T14:45:32.046Z,6.45
2022-11-24T14:48:50.424Z,6.05
2022-11-24T14:52:02.408Z,6.37
2022-11-24T14:55:21.783Z,5.85
2022-11-24T14:58:40.472Z,7.03
2022-11-24T15:01:45.037Z,6.72
2022-11-24T15:05:03.232Z,6.07
2022-11-24T15:08:13.460Z,6.10
2022-11-24T15:11:16.235Z,5.55
2022-11-24T15:14:44.234Z,5.60
2022-11-24T15:17:58.268Z,6.80
2022-11-24T15:21:01.273Z,8.05
2022-11-24T15:24:18.379Z,7.78
2022-11-24T15:27:21.094Z,6.22
2022-11-24T15:30:24.001Z,6.37
2022-11-24T15:36:29.636Z,6.65
2022-11-24T15:39:32.575Z,6.28
2022-11-24T15:42:35.184Z,6.18
2022-11-24T15:45:37.905Z,5.70
2022-11-24T15:48:41.894Z,6.72
2022-11-24T15:57:54.316Z,6.50
2022-11-24T16:00:57.076Z,6.12
2022-11-24T16:04:00.741Z,7.93
2022-11-24T16:07:06.247Z,6.12
2022-11-24T16:10:21.716Z,6.82
2022-11-24T16:13:24.286Z,5.35
2022-11-24T16:16:29.115Z,6.47
2022-11-24T16:19:31.695Z,6.45
2022-11-24T16:22:34.530Z,6.43
2022-11-24T16:25:37.083Z,7.90
2022-11-24T16:28:40.657Z,6.97
2022-11-24T16:34:46.301Z,6.43
2022-11-24T16:37:48.930Z,6.50
2022-11-24T16:40:53.008Z,6.10
2022-11-24T16:43:55.616Z,6.97
2022-11-24T16:46:58.415Z,6.82
2022-11-24T16:53:04.333Z,6.37
2022-11-24T16:56:08.190Z,6.78
2022-11-24T16:59:11.899Z,6.47
2022-11-24T17:05:17.271Z,4.70
2022-11-24T17:08:19.796Z,6.68
2022-11-24T17:11:25.036Z,6.57
2022-11-24T17:14:27.613Z,6.85
2022-11-24T17:17:30.489Z,6.62
